• Join FlightAware (Why Join?)
  • Login
  • US Flag 
07:16PM EDT


 

Airport Tracker/Info


-or-


 

Live Flight TrackerFlight Track Log ✈ N7484J ✈ 18-Oct-2013 ✈ KCGS

Flight Track Log - Related Links

Times and Time Zones

All times are in EDT time to prevent confusion due to time zone crossing. See the N7484J flight status page for this flight to view local times or setup timezone preferences in your user account.

Time Position Orientation Groundspeed Altitude Reporting Facility
EDT Latitude Longitude Course Direction KTS MPH feet Rate Location/Type
01:09PM 39.0667 -76.1167 270° West 117 135 1,400  Level Potomac TRACON
01:10PM 39.0667 -76.1500 270° West 121 139 1,500 60 Climbing Potomac TRACON
01:11PM 39.0500 -76.2000 247° West 120 138 1,600  Climbing Potomac TRACON
01:12PM 39.0333 -76.2333 237° Southwest 117 135 1,600  Level Potomac TRACON
01:13PM 39.0333 -76.2833 270° West 121 139 1,600  Level Potomac TRACON
01:14PM 39.0167 -76.3167 237° Southwest 119 137 1,700  Climbing Potomac TRACON
01:15PM 39.0000 -76.3500 237° Southwest 124 143 1,700  Level Potomac TRACON
01:16PM 39.0000 -76.4000 270° West 125 144 1,700  Level Potomac TRACON
01:17PM 38.9833 -76.4333 237° Southwest 126 145 1,800  Climbing Potomac TRACON
01:18PM 38.9667 -76.4833 247° West 123 142 1,800  Level Potomac TRACON
01:19PM 38.9667 -76.5167 270° West 125 144 1,800 -600 Level Potomac TRACON
01:20PM 38.9500 -76.5667 247° West 147 169 700  Descending Potomac TRACON
01:21PM 38.9500 -76.6000 270° West 116 133 1,800 480 Climbing Potomac TRACON
01:22PM 38.9667 -76.6333 303° West 129 148 1,700 -60 Descending Potomac TRACON
01:23PM 38.9667 -76.6833 270° West 130 150 1,700  Level Potomac TRACON
01:24PM 38.9667 -76.7333 270° West 127 146 1,700  Level Potomac TRACON
01:25PM 38.9667 -76.7833 270° West 128 147 1,700 -300 Level Potomac TRACON
01:26PM 38.9667 -76.8333 270° West 140 161 1,200 -300 Descending Potomac TRACON
01:27PM 38.9667 -76.8667 270° West 133 153 1,100 -420 Descending Potomac TRACON
01:28PM 38.9667 -76.9167 270° West 104 120 400 -720 Descending Potomac TRACON
01:30PM 38.9806 -76.9223 258° West  Level Estimated
01:37PM 38.9806 -76.9223 258° West  Level Estimated
01:38PM 38.9806 -76.9223 258° West  Level Estimated
01:39PM 38.9806 -76.9223 258° West  Level Estimated